Pagrindinis puslapis
METAR-TAF:

METAR-TAF

Oro uostai :

Thule, Grenlandija

platuma: 76-32N, ilguma: 068-42W, Aukštis: 77 m

Dabartinis oras

Ataskaita buvo paskelbta 57 minutes, ne 03:56 UTC
Vėjas 7 kt iš Rytų
Temperatūra -18°C
Drėgmė 77%
Slėgis 1014 hPa
Matomumas 10 km arba daugiau
Giedras dangus

METAR: BGTL 070356Z AUTO 09007KT 9999 CLR M18/M21 A2993 RMK AO2 SLP125 T11851210 411031194 TSNO $

Laikas: 01:53 (04:53 UTC)

Prognozė

Ataskaita buvo paskelbta 17 valandos ir 47 minutes, ne 11:06 UTC
Prognozė galioja nuo 06 metu 11 UTC su 07 metu 15 UTC
Vėjas 12 kt iš Pietryčių
Matomumas 10 km arba daugiau
Su prošvaistėmis ne aukštis 8000 ft
Tapsmas
nuo 06 metu 14 UTC su 06 metu 15 UTC
Vėjas 12 kt iš Rytų/Pietryčių
Matomumas: 0709 m
Giedras dangus

TAF: BGTL 061106Z 0611/0715 13012KT 9999 BKN080 QNH3007INS BECMG 0614/0615 11012KT 9999 SKC QNH2987INS TXM12/0618Z TNM22/0705Z LAST NO AMDS AFT 0611 NEXT 0709

Orai ataskaitas ir orų prognozės (METAR, TAF).

turimą stotys yra geltonos ir raudonos taškus žemėlapyje.

Perkelti pele per norėdami pamatyti stoties vardą.

Tada spustelėkite, norėdami matyti oro stebėjimo ir prognozės.

Norėdami pakeisti žemėlapį: spustelėkite ant žalios mygtukų su juodo kryžiaus žemyn,; žalią mygtuką su brūkšneliu, jei norite nutolinti; arba žalių rodyklių gretimoms žemėlapius.


METAR-TAF: